• Join FlightAware (Why Join?)
  • Login
  • US Flag 
02:51AM EDT


 

Airport Tracker/Info


-or-


 

Live Flight TrackerFlight Track Log ✈ AWI3778 ✈ 24-Jun-2013 ✈ KBTV - KPHL

Flight Track Log - Related Links

Times and Time Zones

All times are in EDT time to prevent confusion due to time zone crossing. See the AWI3778 flight status page for this flight to view local times or setup timezone preferences in your user account.

Time Position Orientation Groundspeed Altitude Reporting Facility
EDT Latitude Longitude Course Direction KTS MPH feet Rate Location/Type
01:39PM 44.3344 -73.1047 169° South 237 273 6,400  Level Boston Center
01:40PM 44.2700 -73.0867 169° South 237 273 8,700 1,800 Climbing Boston Center
01:41PM 44.1950 -73.0714 172° South 252 290 10,000 1,200 Climbing Boston Center
01:42PM 44.1117 -73.0647 177° South 292 336 11,100 1,620 Climbing Boston Center
01:43PM 44.0281 -73.0983 196° South 316 364 13,300 2,100 Climbing Boston Center
01:44PM 43.9467 -73.1464 203° Southwest 321 369 15,400 1,800 Climbing Boston Center
01:45PM 43.8631 -73.1917 201° Southwest 326 375 16,900 1,320 Climbing Boston Center
01:46PM 43.7750 -73.2422 203° Southwest 335 386 18,100 1,020 Climbing Boston Center
01:47PM 43.6936 -73.2872 202° Southwest 353 406 19,000 1,140 Climbing Boston Center
01:48PM 43.5889 -73.3431 201° Southwest 365 420 20,400 1,620 Climbing Boston Center
01:49PM 43.4989 -73.3931 202° Southwest 365 420 22,300 1,680 Climbing Boston Center
01:50PM 43.4192 -73.4606 212° Southwest 353 406 23,800 1,200 Climbing Boston Center
01:51PM 43.3494 -73.5478 222° Southwest 345 397 24,700 900 Climbing Boston Center
01:52PM 43.2778 -73.6378 222° Southwest 345 397 25,600 600 Climbing Boston Center
01:53PM 43.2039 -73.7247 221° Southwest 350 403 26,000 180 Climbing Boston Center
01:54PM 43.1214 -73.8225 221° Southwest 371 427 26,000  Level Boston Center
01:55PM 43.0350 -73.9031 214° Southwest 382 440 26,000  Level Boston Center
01:56PM 42.9464 -73.9858 214° Southwest 387 445 26,000  Level Boston Center
01:57PM 42.8556 -74.0714 215° Southwest 392 451 26,000  Level Boston Center
01:58PM 42.7794 -74.1486 217° Southwest 397 457 26,000  Level Boston Center
01:59PM 42.6886 -74.2225 211° Southwest 392 451 26,000  Level Boston Center
02:00PM 42.5850 -74.3097 212° Southwest 392 451 26,000 -480 Level Boston Center
02:01PM 42.4775 -74.3939 210° Southwest 392 451 25,000 -960 Descending Boston Center
02:02PM 42.3886 -74.4583 208° Southwest 392 451 23,900 -1,320 Descending Boston Center
02:03PM 42.2936 -74.5311 210° Southwest 392 451 22,400 -1,800 Descending Boston Center
02:04PM 42.1883 -74.5836 200° South 392 451 20,400 -2,100 Descending Boston Center
02:05PM 42.0875 -74.6222 196° South 392 451 18,200 -1,680 Descending Boston Center
02:07PM 41.9331 -74.6464 187° South 365 420 16,200 -900 Descending New York Center
02:08PM 41.8461 -74.6942 202° Southwest 344 396 16,000 -120 Descending New York Center
02:09PM 41.7611 -74.7419 203° Southwest 337 388 16,000  Level New York Center
02:10PM 41.7058 -74.8386 233° Southwest 319 367 16,000  Level New York Center
02:11PM 41.6425 -74.9264 226° Southwest 330 380 16,000  Level New York Center
02:12PM 41.5875 -75.0089 228° Southwest 336 387 16,000 -300 Level New York Center
02:13PM 41.5300 -75.0994 230° Southwest 336 387 15,400 -1,200 Descending New York Center
02:14PM 41.4719 -75.2092 235° Southwest 336 387 13,700 -1,620 Descending New York Center
02:15PM 41.4222 -75.3111 237° Southwest 336 387 12,200 -900 Descending New York Center
02:16PM 41.3808 -75.4133 242° Southwest 331 381 12,000 -120 Descending New York Center
02:17PM 41.3481 -75.5050 245° Southwest 314 361 12,000  Level New York Center
02:18PM 41.3086 -75.6017 242° Southwest 302 348 12,000  Level New York Center
02:19PM 41.2553 -75.6861 230° Southwest 295 339 12,000 -660 Level New York Center
02:20PM 41.1531 -75.6869 180° South 297 342 10,800 -1,020 Descending New York Center
02:21PM 41.0656 -75.6861 180° South 316 364 10,000 -420 Descending New York Center
02:22PM 40.9886 -75.6861 180° South 293 337 10,000  Level New York Center
02:23PM 40.9175 -75.6892 182° South 275 316 10,000  Level New York Center
02:24PM 40.8550 -75.6875 179° South 262 302 10,000  Level New York Center
02:25PM 40.7864 -75.6853 179° South 251 289 10,000  Level New York Center
02:26PM 40.7144 -75.6636 167° South 251 289 10,000  Level New York Center
02:27PM 40.6561 -75.6103 145° Southeast 251 289 10,000  Level New York Center
02:28PM 40.6086 -75.5494 136° Southeast 257 296 10,000  Level New York Center
02:29PM 40.5419 -75.4983 150° Southeast 263 303 10,000  Level New York Center
02:30PM 40.4792 -75.4531 151° Southeast 251 289 10,000  Level New York Center
02:31PM 40.4197 -75.4244 160° South 251 289 10,000  Level New York Center
02:32PM 40.4008 -75.4858 248° West 141 162 10,000  Level New York Center
02:33PM 40.4317 -75.5453 304° West 172 198 10,000  Level New York Center
02:34PM 40.4642 -75.6186 300° West 205 236 10,000  Level New York Center
02:35PM 40.5139 -75.6219 357° North 188 216 10,000  Level New York Center
02:36PM 40.5025 -75.5447 101° East 138 159 10,000  Level New York Center
02:37PM 40.4700 -75.4742 121° Southeast 186 214 10,000  Level New York Center
02:38PM 40.4331 -75.4064 126° Southeast 227 261 10,000  Level New York Center
02:39PM 40.4000 -75.4531 227° Southwest 168 193 10,000  Level New York Center
02:41PM 40.4569 -75.5908 299° West 208 239 10,000  Level New York Center
02:42PM 40.5008 -75.6347 323° Northwest 219 252 10,000  Level New York Center
02:43PM 40.5186 -75.5622 72° East 150 173 10,000  Level New York Center
02:44PM 40.4719 -75.4744 125° Southeast 223 257 10,000  Level New York Center
02:45PM 40.4250 -75.3978 129° Southeast 258 297 10,000 -420 Level New York Center
02:46PM 40.3592 -75.3769 166° South 253 291 9,200 -1,080 Descending New York Center
02:47PM 40.2939 -75.3400 157° South 258 297 7,900 -1,380 Descending New York Center
02:48PM 40.2247 -75.3000 156° South 253 291 6,400 -960 Descending New York Center
02:49PM 40.1572 -75.2656 159° South 259 298 6,000 -240 Descending New York Center
02:50PM 40.0958 -75.2319 157° South 245 282 6,000  Level New York Center
02:51PM 40.0431 -75.1933 151° Southeast 234 269 6,000  Level New York Center
02:52PM 40.0269 -75.1244 107° East 207 238 6,000 -540 Level New York Center
02:53PM 39.9833 -75.0167 118° Southeast 208 239 4,800 -1,260 Descending Philadelphia TRACON
02:54PM 39.9333 -75.0000 166° South 184 212 3,100 -1,080 Descending Philadelphia TRACON
02:55PM 39.9167 -75.0333 237° Southwest 167 192 2,600 -480 Descending Philadelphia TRACON